sensor_id;sensor_type;location;lat;lon;timestamp;pressure;altitude;pressure_sealevel;temperature;humidity
41712;BME280;27399;51.516;13.670;2023-01-15T00:01:01;98994.25;;;10.04;94.58
41712;BME280;27399;51.516;13.670;2023-01-15T00:03:28;98992.50;;;10.03;94.75
41712;BME280;27399;51.516;13.670;2023-01-15T00:05:54;98975.13;;;10.20;93.55
41712;BME280;27399;51.516;13.670;2023-01-15T00:08:20;98969.84;;;10.18;93.28
41712;BME280;27399;51.516;13.670;2023-01-15T00:10:46;98962.66;;;9.92;94.97
41712;BME280;27399;51.516;13.670;2023-01-15T00:13:11;98965.66;;;10.10;93.80
41712;BME280;27399;51.516;13.670;2023-01-15T00:15:37;98969.31;;;10.05;94.22
41712;BME280;27399;51.516;13.670;2023-01-15T00:18:03;98959.78;;;9.98;94.37
41712;BME280;27399;51.516;13.670;2023-01-15T00:20:29;98943.09;;;9.93;94.08
41712;BME280;27399;51.516;13.670;2023-01-15T00:22:54;98944.91;;;9.91;94.51
41712;BME280;27399;51.516;13.670;2023-01-15T00:25:20;98949.22;;;9.95;94.37
41712;BME280;27399;51.516;13.670;2023-01-15T00:28:06;98959.47;;;10.09;94.17
41712;BME280;27399;51.516;13.670;2023-01-15T00:30:31;98949.41;;;10.19;93.18
41712;BME280;27399;51.516;13.670;2023-01-15T00:32:57;98948.34;;;9.95;93.56
41712;BME280;27399;51.516;13.670;2023-01-15T00:35:24;98926.47;;;10.15;93.41
41712;BME280;27399;51.516;13.670;2023-01-15T00:37:50;98915.06;;;10.10;93.53
41712;BME280;27399;51.516;13.670;2023-01-15T00:40:17;98913.72;;;10.24;92.37
41712;BME280;27399;51.516;13.670;2023-01-15T00:42:43;98923.06;;;10.10;92.80
41712;BME280;27399;51.516;13.670;2023-01-15T00:45:10;98909.63;;;10.43;92.24
41712;BME280;27399;51.516;13.670;2023-01-15T00:47:40;98925.28;;;10.23;92.38
41712;BME280;27399;51.516;13.670;2023-01-15T00:50:09;98911.22;;;10.48;90.90
41712;BME280;27399;51.516;13.670;2023-01-15T00:52:35;98915.97;;;10.38;91.14
41712;BME280;27399;51.516;13.670;2023-01-15T00:55:01;98912.13;;;10.76;89.84
41712;BME280;27399;51.516;13.670;2023-01-15T00:57:26;98889.03;;;10.75;89.30
41712;BME280;27399;51.516;13.670;2023-01-15T00:59:52;98886.28;;;10.78;89.48
41712;BME280;27399;51.516;13.670;2023-01-15T01:02:18;98878.84;;;10.61;89.85
41712;BME280;27399;51.516;13.670;2023-01-15T01:04:43;98877.22;;;10.82;89.59
41712;BME280;27399;51.516;13.670;2023-01-15T01:07:09;98871.38;;;10.97;88.31
41712;BME280;27399;51.516;13.670;2023-01-15T01:09:35;98840.94;;;10.78;88.49
41712;BME280;27399;51.516;13.670;2023-01-15T01:12:00;98860.81;;;10.94;87.96
41712;BME280;27399;51.516;13.670;2023-01-15T01:14:27;98862.06;;;10.84;88.15
41712;BME280;27399;51.516;13.670;2023-01-15T01:16:53;98856.63;;;10.87;88.53
41712;BME280;27399;51.516;13.670;2023-01-15T01:19:21;98853.44;;;10.76;88.38
41712;BME280;27399;51.516;13.670;2023-01-15T01:21:48;98856.06;;;10.77;88.26
41712;BME280;27399;51.516;13.670;2023-01-15T01:24:19;98868.13;;;10.89;87.97
41712;BME280;27399;51.516;13.670;2023-01-15T01:26:46;98849.53;;;10.86;88.28
41712;BME280;27399;51.516;13.670;2023-01-15T01:29:13;98842.06;;;10.96;87.05
41712;BME280;27399;51.516;13.670;2023-01-15T01:31:40;98845.81;;;10.90;87.36
41712;BME280;27399;51.516;13.670;2023-01-15T01:34:05;98834.63;;;11.06;87.00
41712;BME280;27399;51.516;13.670;2023-01-15T01:36:34;98800.88;;;11.05;86.50
41712;BME280;27399;51.516;13.670;2023-01-15T01:39:00;98831.53;;;11.18;86.07
41712;BME280;27399;51.516;13.670;2023-01-15T01:41:27;98832.53;;;11.14;85.77
41712;BME280;27399;51.516;13.670;2023-01-15T01:44:04;98839.72;;;11.37;85.35
41712;BME280;27399;51.516;13.670;2023-01-15T01:46:35;98829.19;;;11.09;86.11
41712;BME280;27399;51.516;13.670;2023-01-15T01:49:10;98827.59;;;11.28;85.47
41712;BME280;27399;51.516;13.670;2023-01-15T01:51:44;98829.28;;;11.55;85.24
41712;BME280;27399;51.516;13.670;2023-01-15T01:54:15;98824.47;;;11.41;85.08
41712;BME280;27399;51.516;13.670;2023-01-15T01:56:42;98812.25;;;11.34;86.03
41712;BME280;27399;51.516;13.670;2023-01-15T01:59:08;98815.75;;;11.36;85.36
41712;BME280;27399;51.516;13.670;2023-01-15T02:01:34;98819.88;;;11.44;85.20
41712;BME280;27399;51.516;13.670;2023-01-15T02:04:00;98812.50;;;11.51;84.96
41712;BME280;27399;51.516;13.670;2023-01-15T02:06:27;98819.78;;;11.47;85.22
41712;BME280;27399;51.516;13.670;2023-01-15T02:08:53;98822.13;;;11.55;85.01
41712;BME280;27399;51.516;13.670;2023-01-15T02:11:21;98820.28;;;11.57;85.16
41712;BME280;27399;51.516;13.670;2023-01-15T02:13:58;98815.94;;;11.55;85.15
41712;BME280;27399;51.516;13.670;2023-01-15T02:25:19;98813.81;;;11.63;84.31
41712;BME280;27399;51.516;13.670;2023-01-15T02:27:55;98799.09;;;11.76;83.82
41712;BME280;27399;51.516;13.670;2023-01-15T02:30:30;98805.28;;;11.77;84.34
41712;BME280;27399;51.516;13.670;2023-01-15T02:36:01;98787.50;;;11.76;83.92
41712;BME280;27399;51.516;13.670;2023-01-15T02:38:36;98781.94;;;11.82;83.68
41712;BME280;27399;51.516;13.670;2023-01-15T02:41:06;98778.00;;;11.91;83.65
41712;BME280;27399;51.516;13.670;2023-01-15T02:43:43;98786.28;;;11.85;84.05
41712;BME280;27399;51.516;13.670;2023-01-15T02:46:13;98779.28;;;11.82;83.52
41712;BME280;27399;51.516;13.670;2023-01-15T02:48:40;98774.84;;;11.81;84.18
41712;BME280;27399;51.516;13.670;2023-01-15T02:51:12;98775.22;;;11.72;85.08
41712;BME280;27399;51.516;13.670;2023-01-15T02:53:40;98770.00;;;11.69;86.73
41712;BME280;27399;51.516;13.670;2023-01-15T02:56:11;98757.28;;;11.75;86.38
41712;BME280;27399;51.516;13.670;2023-01-15T02:58:39;98769.44;;;11.60;86.49
41712;BME280;27399;51.516;13.670;2023-01-15T03:01:10;98768.59;;;11.82;86.42
41712;BME280;27399;51.516;13.670;2023-01-15T03:03:48;98769.75;;;11.75;86.00
41712;BME280;27399;51.516;13.670;2023-01-15T03:06:33;98773.63;;;11.90;85.94
41712;BME280;27399;51.516;13.670;2023-01-15T03:09:01;98776.47;;;11.85;86.73
41712;BME280;27399;51.516;13.670;2023-01-15T03:11:27;98761.31;;;11.63;86.58
41712;BME280;27399;51.516;13.670;2023-01-15T03:14:31;98755.53;;;11.74;86.97
41712;BME280;27399;51.516;13.670;2023-01-15T03:17:06;98741.91;;;11.81;86.78
41712;BME280;27399;51.516;13.670;2023-01-15T03:19:57;98733.16;;;11.77;86.66
41712;BME280;27399;51.516;13.670;2023-01-15T03:22:35;98726.13;;;11.97;86.49
41712;BME280;27399;51.516;13.670;2023-01-15T03:27:30;98727.09;;;11.96;86.29
41712;BME280;27399;51.516;13.670;2023-01-15T03:30:14;98739.44;;;11.76;86.37
41712;BME280;27399;51.516;13.670;2023-01-15T03:32:40;98738.22;;;11.85;87.02
41712;BME280;27399;51.516;13.670;2023-01-15T03:35:36;98727.25;;;11.91;86.72
41712;BME280;27399;51.516;13.670;2023-01-15T03:37:53;98732.00;;;11.84;87.44
41712;BME280;27399;51.516;13.670;2023-01-15T03:40:19;98728.25;;;11.88;88.59
41712;BME280;27399;51.516;13.670;2023-01-15T03:42:49;98732.19;;;11.80;88.88
41712;BME280;27399;51.516;13.670;2023-01-15T03:45:40;98737.09;;;11.90;88.44
41712;BME280;27399;51.516;13.670;2023-01-15T03:48:11;98722.81;;;11.91;89.39
41712;BME280;27399;51.516;13.670;2023-01-15T03:50:47;98724.53;;;11.92;90.28
41712;BME280;27399;51.516;13.670;2023-01-15T03:53:32;98739.53;;;11.51;90.38
41712;BME280;27399;51.516;13.670;2023-01-15T03:58:43;98735.19;;;11.72;91.40
41712;BME280;27399;51.516;13.670;2023-01-15T04:01:13;98726.16;;;11.74;91.43
41712;BME280;27399;51.516;13.670;2023-01-15T04:03:41;98720.63;;;11.57;91.94
41712;BME280;27399;51.516;13.670;2023-01-15T04:06:08;98728.94;;;11.49;92.42
41712;BME280;27399;51.516;13.670;2023-01-15T04:08:38;98719.19;;;11.70;92.42
41712;BME280;27399;51.516;13.670;2023-01-15T04:11:05;98716.66;;;11.67;93.04
41712;BME280;27399;51.516;13.670;2023-01-15T04:13:31;98717.22;;;11.53;93.19
41712;BME280;27399;51.516;13.670;2023-01-15T04:15:57;98717.44;;;11.47;93.46
41712;BME280;27399;51.516;13.670;2023-01-15T04:18:23;98717.53;;;11.45;93.08
41712;BME280;27399;51.516;13.670;2023-01-15T04:20:49;98717.22;;;11.53;93.49
41712;BME280;27399;51.516;13.670;2023-01-15T04:23:14;98705.81;;;11.72;92.99
41712;BME280;27399;51.516;13.670;2023-01-15T04:25:40;98702.84;;;11.34;94.65
41712;BME280;27399;51.516;13.670;2023-01-15T04:28:07;98705.97;;;11.45;93.44
41712;BME280;27399;51.516;13.670;2023-01-15T04:30:33;98691.47;;;11.52;93.33
41712;BME280;27399;51.516;13.670;2023-01-15T04:33:01;98686.78;;;11.57;93.50
41712;BME280;27399;51.516;13.670;2023-01-15T04:35:27;98677.34;;;11.48;93.65
41712;BME280;27399;51.516;13.670;2023-01-15T04:37:57;98660.34;;;11.51;93.56
41712;BME280;27399;51.516;13.670;2023-01-15T04:40:22;98683.56;;;11.49;93.97
41712;BME280;27399;51.516;13.670;2023-01-15T04:43:09;98683.94;;;11.40;94.25
41712;BME280;27399;51.516;13.670;2023-01-15T04:45:54;98681.28;;;11.40;94.19
41712;BME280;27399;51.516;13.670;2023-01-15T04:48:19;98666.34;;;11.56;93.90
41712;BME280;27399;51.516;13.670;2023-01-15T04:50:45;98669.66;;;11.63;93.55
41712;BME280;27399;51.516;13.670;2023-01-15T04:53:10;98654.88;;;11.54;94.07
41712;BME280;27399;51.516;13.670;2023-01-15T04:55:36;98658.22;;;11.59;93.51
41712;BME280;27399;51.516;13.670;2023-01-15T04:58:02;98654.78;;;11.78;92.73
41712;BME280;27399;51.516;13.670;2023-01-15T05:00:27;98648.22;;;11.65;93.36
41712;BME280;27399;51.516;13.670;2023-01-15T05:02:53;98649.66;;;11.73;92.51
41712;BME280;27399;51.516;13.670;2023-01-15T05:05:18;98646.66;;;11.81;92.48
41712;BME280;27399;51.516;13.670;2023-01-15T05:07:44;98639.09;;;11.70;92.46
41712;BME280;27399;51.516;13.670;2023-01-15T05:10:10;98640.28;;;11.63;92.40
41712;BME280;27399;51.516;13.670;2023-01-15T05:12:35;98646.78;;;11.78;91.85
41712;BME280;27399;51.516;13.670;2023-01-15T05:15:01;98640.59;;;11.77;92.12
41712;BME280;27399;51.516;13.670;2023-01-15T05:17:27;98641.84;;;11.69;91.59
41712;BME280;27399;51.516;13.670;2023-01-15T05:19:52;98637.38;;;11.69;91.59
41712;BME280;27399;51.516;13.670;2023-01-15T05:22:18;98635.59;;;11.90;90.72
41712;BME280;27399;51.516;13.670;2023-01-15T05:24:43;98641.25;;;11.83;91.31
41712;BME280;27399;51.516;13.670;2023-01-15T05:27:09;98635.25;;;11.77;91.05
41712;BME280;27399;51.516;13.670;2023-01-15T05:29:34;98635.16;;;11.79;91.21
41712;BME280;27399;51.516;13.670;2023-01-15T05:32:00;98636.50;;;11.69;91.43
41712;BME280;27399;51.516;13.670;2023-01-15T05:34:26;98642.13;;;11.83;90.42
41712;BME280;27399;51.516;13.670;2023-01-15T05:36:51;98637.56;;;11.85;90.63
41712;BME280;27399;51.516;13.670;2023-01-15T05:39:17;98605.69;;;11.60;90.29
41712;BME280;27399;51.516;13.670;2023-01-15T05:41:43;98628.69;;;11.64;91.16
41712;BME280;27399;51.516;13.670;2023-01-15T05:44:25;98626.03;;;11.42;91.38
41712;BME280;27399;51.516;13.670;2023-01-15T05:46:54;98625.00;;;11.67;90.53
41712;BME280;27399;51.516;13.670;2023-01-15T05:49:22;98689.75;;;11.27;92.17
41712;BME280;27399;51.516;13.670;2023-01-15T05:51:49;98674.03;;;11.20;94.07
41712;BME280;27399;51.516;13.670;2023-01-15T05:54:23;98724.59;;;10.75;93.80
41712;BME280;27399;51.516;13.670;2023-01-15T05:56:50;98727.19;;;10.26;94.65
41712;BME280;27399;51.516;13.670;2023-01-15T05:59:17;98738.69;;;10.27;94.26
41712;BME280;27399;51.516;13.670;2023-01-15T06:01:43;98755.03;;;9.89;95.76
41712;BME280;27399;51.516;13.670;2023-01-15T06:04:11;98760.13;;;9.68;95.48
41712;BME280;27399;51.516;13.670;2023-01-15T06:06:38;98776.19;;;9.65;93.53
41712;BME280;27399;51.516;13.670;2023-01-15T06:09:04;98790.59;;;9.58;93.13
41712;BME280;27399;51.516;13.670;2023-01-15T06:11:30;98797.47;;;9.35;91.19
41712;BME280;27399;51.516;13.670;2023-01-15T06:13:55;98796.63;;;9.35;91.76
41712;BME280;27399;51.516;13.670;2023-01-15T06:16:21;98804.19;;;9.49;93.10
41712;BME280;27399;51.516;13.670;2023-01-15T06:18:48;98802.63;;;9.71;92.61
41712;BME280;27399;51.516;13.670;2023-01-15T06:21:13;98811.06;;;9.56;92.46
41712;BME280;27399;51.516;13.670;2023-01-15T06:23:40;98817.16;;;9.59;91.80
41712;BME280;27399;51.516;13.670;2023-01-15T06:26:10;98826.94;;;9.29;92.50
41712;BME280;27399;51.516;13.670;2023-01-15T06:28:36;98837.69;;;8.93;92.45
41712;BME280;27399;51.516;13.670;2023-01-15T06:31:06;98848.16;;;8.99;91.56
41712;BME280;27399;51.516;13.670;2023-01-15T06:33:31;98851.41;;;8.76;92.59
41712;BME280;27399;51.516;13.670;2023-01-15T06:35:57;98862.75;;;8.82;90.68
41712;BME280;27399;51.516;13.670;2023-01-15T06:38:23;98871.97;;;8.69;92.30
41712;BME280;27399;51.516;13.670;2023-01-15T06:40:48;98882.44;;;8.75;91.48
41712;BME280;27399;51.516;13.670;2023-01-15T06:43:14;98896.59;;;8.38;93.15
41712;BME280;27399;51.516;13.670;2023-01-15T06:45:59;98893.56;;;8.57;92.22
41712;BME280;27399;51.516;13.670;2023-01-15T06:48:51;98888.25;;;8.57;92.62
41712;BME280;27399;51.516;13.670;2023-01-15T06:51:17;98879.56;;;8.48;91.98
41712;BME280;27399;51.516;13.670;2023-01-15T06:53:46;98873.09;;;8.60;91.46
41712;BME280;27399;51.516;13.670;2023-01-15T06:56:15;98893.88;;;8.41;89.82
41712;BME280;27399;51.516;13.670;2023-01-15T06:58:41;98898.69;;;8.63;91.95
41712;BME280;27399;51.516;13.670;2023-01-15T07:01:11;98906.31;;;8.39;91.96
41712;BME280;27399;51.516;13.670;2023-01-15T07:03:36;98897.97;;;8.56;90.67
41712;BME280;27399;51.516;13.670;2023-01-15T07:06:10;98899.56;;;8.63;90.26
41712;BME280;27399;51.516;13.670;2023-01-15T07:08:37;98890.84;;;8.93;89.79
41712;BME280;27399;51.516;13.670;2023-01-15T07:11:04;98896.38;;;8.85;89.86
41712;BME280;27399;51.516;13.670;2023-01-15T07:13:31;98901.00;;;8.77;89.98
41712;BME280;27399;51.516;13.670;2023-01-15T07:15:59;98911.34;;;8.53;90.49
41712;BME280;27399;51.516;13.670;2023-01-15T07:18:26;98924.03;;;8.78;89.14
41712;BME280;27399;51.516;13.670;2023-01-15T07:20:56;98920.88;;;8.62;88.94
41712;BME280;27399;51.516;13.670;2023-01-15T07:23:23;98925.94;;;8.73;88.19
41712;BME280;27399;51.516;13.670;2023-01-15T07:25:51;98936.44;;;8.77;89.16
41712;BME280;27399;51.516;13.670;2023-01-15T07:28:19;98935.63;;;8.75;88.40
41712;BME280;27399;51.516;13.670;2023-01-15T07:30:44;98951.56;;;8.75;88.68
41712;BME280;27399;51.516;13.670;2023-01-15T07:33:10;98952.50;;;8.73;89.79
41712;BME280;27399;51.516;13.670;2023-01-15T07:35:37;98959.81;;;8.63;87.45
41712;BME280;27399;51.516;13.670;2023-01-15T07:38:03;98965.25;;;8.58;87.44
41712;BME280;27399;51.516;13.670;2023-01-15T07:40:28;98963.34;;;8.63;88.11
41712;BME280;27399;51.516;13.670;2023-01-15T07:42:54;98970.06;;;8.41;88.76
41712;BME280;27399;51.516;13.670;2023-01-15T07:45:39;98972.44;;;8.55;88.48
41712;BME280;27399;51.516;13.670;2023-01-15T07:48:24;98979.03;;;8.35;88.31
41712;BME280;27399;51.516;13.670;2023-01-15T07:51:09;98987.66;;;8.46;87.66
41712;BME280;27399;51.516;13.670;2023-01-15T07:53:35;98991.16;;;8.48;88.83
41712;BME280;27399;51.516;13.670;2023-01-15T07:56:01;99000.31;;;8.33;86.22
41712;BME280;27399;51.516;13.670;2023-01-15T07:58:26;98991.25;;;8.42;86.93
41712;BME280;27399;51.516;13.670;2023-01-15T08:00:52;99003.66;;;8.42;86.53
41712;BME280;27399;51.516;13.670;2023-01-15T08:03:17;99001.41;;;8.25;86.65
41712;BME280;27399;51.516;13.670;2023-01-15T08:05:43;99001.03;;;7.99;88.77
41712;BME280;27399;51.516;13.670;2023-01-15T08:08:16;99007.94;;;8.08;86.96
41712;BME280;27399;51.516;13.670;2023-01-15T08:10:42;99016.28;;;7.89;88.85
41712;BME280;27399;51.516;13.670;2023-01-15T08:13:26;99003.69;;;7.99;87.65
41712;BME280;27399;51.516;13.670;2023-01-15T08:16:10;99019.97;;;7.81;87.34
41712;BME280;27399;51.516;13.670;2023-01-15T08:18:37;99033.00;;;7.93;88.29
41712;BME280;27399;51.516;13.670;2023-01-15T08:21:03;99033.16;;;7.85;87.35
41712;BME280;27399;51.516;13.670;2023-01-15T08:23:29;99035.72;;;7.90;88.49
41712;BME280;27399;51.516;13.670;2023-01-15T08:25:58;99037.34;;;7.99;88.90
41712;BME280;27399;51.516;13.670;2023-01-15T08:28:24;99043.34;;;8.09;87.39
41712;BME280;27399;51.516;13.670;2023-01-15T08:30:50;99044.91;;;8.17;88.43
41712;BME280;27399;51.516;13.670;2023-01-15T08:33:15;99033.16;;;7.87;87.87
41712;BME280;27399;51.516;13.670;2023-01-15T08:35:41;99039.53;;;8.20;86.98
41712;BME280;27399;51.516;13.670;2023-01-15T08:38:07;99030.22;;;8.01;88.20
41712;BME280;27399;51.516;13.670;2023-01-15T08:40:33;99026.53;;;8.08;86.81
41712;BME280;27399;51.516;13.670;2023-01-15T08:43:01;99027.22;;;8.16;86.06
41712;BME280;27399;51.516;13.670;2023-01-15T08:45:26;99027.31;;;8.12;85.81
41712;BME280;27399;51.516;13.670;2023-01-15T08:47:55;99020.75;;;7.87;87.81
41712;BME280;27399;51.516;13.670;2023-01-15T08:50:22;99012.81;;;7.86;87.14
41712;BME280;27399;51.516;13.670;2023-01-15T08:52:48;99018.59;;;8.05;86.69
41712;BME280;27399;51.516;13.670;2023-01-15T08:55:14;99025.19;;;7.85;87.07
41712;BME280;27399;51.516;13.670;2023-01-15T08:57:39;99027.56;;;7.99;87.36
41712;BME280;27399;51.516;13.670;2023-01-15T09:00:05;99015.00;;;7.65;87.13
41712;BME280;27399;51.516;13.670;2023-01-15T09:02:31;99008.75;;;7.68;87.17
41712;BME280;27399;51.516;13.670;2023-01-15T09:04:57;99014.09;;;7.65;88.00
41712;BME280;27399;51.516;13.670;2023-01-15T09:07:22;99026.59;;;7.58;87.90
41712;BME280;27399;51.516;13.670;2023-01-15T09:09:48;99022.09;;;7.63;88.31
41712;BME280;27399;51.516;13.670;2023-01-15T09:12:14;99024.63;;;7.71;88.05
41712;BME280;27399;51.516;13.670;2023-01-15T09:14:39;99025.88;;;7.50;89.14
41712;BME280;27399;51.516;13.670;2023-01-15T09:17:05;99026.16;;;7.34;89.27
41712;BME280;27399;51.516;13.670;2023-01-15T09:19:31;99022.66;;;7.31;89.87
41712;BME280;27399;51.516;13.670;2023-01-15T09:21:56;99013.66;;;7.41;89.27
41712;BME280;27399;51.516;13.670;2023-01-15T09:24:22;99023.00;;;7.12;89.54
41712;BME280;27399;51.516;13.670;2023-01-15T09:26:47;99007.97;;;7.11;90.11
41712;BME280;27399;51.516;13.670;2023-01-15T09:29:13;99010.34;;;7.29;89.92
41712;BME280;27399;51.516;13.670;2023-01-15T09:31:39;99006.97;;;7.20;90.46
41712;BME280;27399;51.516;13.670;2023-01-15T09:34:04;99019.06;;;7.35;90.79
41712;BME280;27399;51.516;13.670;2023-01-15T09:36:32;99027.88;;;7.37;90.59
41712;BME280;27399;51.516;13.670;2023-01-15T09:38:59;99026.19;;;7.33;91.24
41712;BME280;27399;51.516;13.670;2023-01-15T09:47:20;99034.13;;;7.33;91.62
41712;BME280;27399;51.516;13.670;2023-01-15T09:55:54;99018.16;;;7.36;91.77
41712;BME280;27399;51.516;13.670;2023-01-15T09:58:31;99028.75;;;7.37;91.15
41712;BME280;27399;51.516;13.670;2023-01-15T10:00:57;99020.88;;;7.33;92.10
41712;BME280;27399;51.516;13.670;2023-01-15T10:03:29;99014.09;;;7.16;92.84
41712;BME280;27399;51.516;13.670;2023-01-15T10:06:28;99012.19;;;7.24;93.19
41712;BME280;27399;51.516;13.670;2023-01-15T10:09:05;99022.53;;;7.38;91.75
41712;BME280;27399;51.516;13.670;2023-01-15T10:11:47;99021.22;;;7.12;91.75
41712;BME280;27399;51.516;13.670;2023-01-15T10:14:54;99020.09;;;7.26;91.05
41712;BME280;27399;51.516;13.670;2023-01-15T10:17:31;99028.06;;;7.26;91.43
41712;BME280;27399;51.516;13.670;2023-01-15T10:20:04;99031.41;;;7.37;91.15
41712;BME280;27399;51.516;13.670;2023-01-15T10:22:47;99022.44;;;7.44;91.61
41712;BME280;27399;51.516;13.670;2023-01-15T10:25:23;99030.53;;;7.37;91.62
41712;BME280;27399;51.516;13.670;2023-01-15T10:27:51;99034.84;;;7.42;92.52
41712;BME280;27399;51.516;13.670;2023-01-15T10:30:30;99030.31;;;7.49;92.21
41712;BME280;27399;51.516;13.670;2023-01-15T10:33:10;99034.50;;;7.61;92.00
41712;BME280;27399;51.516;13.670;2023-01-15T10:35:58;99031.91;;;7.59;91.54
41712;BME280;27399;51.516;13.670;2023-01-15T10:38:36;99033.13;;;7.40;92.10
41712;BME280;27399;51.516;13.670;2023-01-15T10:41:44;99037.06;;;7.66;91.77
41712;BME280;27399;51.516;13.670;2023-01-15T10:45:03;99039.44;;;7.34;92.36
41712;BME280;27399;51.516;13.670;2023-01-15T10:47:28;99039.19;;;7.48;91.47
41712;BME280;27399;51.516;13.670;2023-01-15T10:49:56;99049.25;;;7.78;91.91
41712;BME280;27399;51.516;13.670;2023-01-15T10:54:53;99049.34;;;7.71;90.81
41712;BME280;27399;51.516;13.670;2023-01-15T10:57:43;99054.25;;;7.93;90.21
41712;BME280;27399;51.516;13.670;2023-01-15T11:00:14;99056.38;;;7.74;90.36
41712;BME280;27399;51.516;13.670;2023-01-15T11:02:48;99055.22;;;7.89;89.96
41712;BME280;27399;51.516;13.670;2023-01-15T11:05:17;99064.16;;;7.85;89.32
41712;BME280;27399;51.516;13.670;2023-01-15T11:07:51;99067.63;;;7.88;88.61
41712;BME280;27399;51.516;13.670;2023-01-15T11:10:20;99075.53;;;7.91;88.89
41712;BME280;27399;51.516;13.670;2023-01-15T11:12:53;99060.50;;;7.90;88.00
41712;BME280;27399;51.516;13.670;2023-01-15T11:15:37;99062.22;;;7.93;88.60
41712;BME280;27399;51.516;13.670;2023-01-15T11:18:28;99061.03;;;8.08;89.21
41712;BME280;27399;51.516;13.670;2023-01-15T11:21:18;99060.50;;;7.89;88.06
41712;BME280;27399;51.516;13.670;2023-01-15T11:23:45;99064.72;;;8.01;88.57
41712;BME280;27399;51.516;13.670;2023-01-15T11:26:23;99054.44;;;8.28;86.14
41712;BME280;27399;51.516;13.670;2023-01-15T11:28:51;99053.78;;;8.16;85.45
41712;BME280;27399;51.516;13.670;2023-01-15T11:31:17;99059.59;;;8.35;85.97
41712;BME280;27399;51.516;13.670;2023-01-15T11:33:56;99056.44;;;8.16;85.75
41712;BME280;27399;51.516;13.670;2023-01-15T11:36:24;99055.09;;;8.39;86.28
41712;BME280;27399;51.516;13.670;2023-01-15T11:38:51;99050.00;;;8.28;84.68
41712;BME280;27399;51.516;13.670;2023-01-15T11:41:23;99041.84;;;8.36;84.13
41712;BME280;27399;51.516;13.670;2023-01-15T11:44:16;99038.13;;;8.48;83.62
41712;BME280;27399;51.516;13.670;2023-01-15T11:47:00;99046.66;;;8.18;83.69
41712;BME280;27399;51.516;13.670;2023-01-15T11:49:52;99032.78;;;8.05;82.93
41712;BME280;27399;51.516;13.670;2023-01-15T11:52:41;99036.25;;;8.09;83.49
41712;BME280;27399;51.516;13.670;2023-01-15T11:55:17;99038.00;;;8.10;82.11
41712;BME280;27399;51.516;13.670;2023-01-15T11:57:44;99039.28;;;8.33;82.48
41712;BME280;27399;51.516;13.670;2023-01-15T12:00:24;99025.66;;;8.06;81.04
41712;BME280;27399;51.516;13.670;2023-01-15T12:02:54;99020.31;;;8.09;80.94
41712;BME280;27399;51.516;13.670;2023-01-15T12:05:27;99021.84;;;8.19;80.71
41712;BME280;27399;51.516;13.670;2023-01-15T12:07:56;99030.44;;;8.32;81.70
41712;BME280;27399;51.516;13.670;2023-01-15T12:10:51;99036.63;;;8.33;81.31
41712;BME280;27399;51.516;13.670;2023-01-15T12:19:58;99044.81;;;8.24;78.75
41712;BME280;27399;51.516;13.670;2023-01-15T12:33:03;99041.69;;;8.45;77.06
41712;BME280;27399;51.516;13.670;2023-01-15T12:35:33;99038.69;;;8.61;76.25
41712;BME280;27399;51.516;13.670;2023-01-15T12:38:23;99047.31;;;8.30;77.10
41712;BME280;27399;51.516;13.670;2023-01-15T12:40:58;99042.66;;;8.41;76.03
41712;BME280;27399;51.516;13.670;2023-01-15T12:43:27;99045.72;;;8.65;77.41
41712;BME280;27399;51.516;13.670;2023-01-15T12:46:15;99036.75;;;8.69;76.16
41712;BME280;27399;51.516;13.670;2023-01-15T12:48:48;99030.91;;;8.91;75.34
41712;BME280;27399;51.516;13.670;2023-01-15T12:51:25;99036.63;;;8.75;75.40
41712;BME280;27399;51.516;13.670;2023-01-15T12:53:59;99032.09;;;8.79;75.49
41712;BME280;27399;51.516;13.670;2023-01-15T13:04:50;99034.09;;;8.69;74.19
41712;BME280;27399;51.516;13.670;2023-01-15T13:07:34;99037.56;;;8.73;73.79
41712;BME280;27399;51.516;13.670;2023-01-15T13:10:15;99040.25;;;8.71;73.54
41712;BME280;27399;51.516;13.670;2023-01-15T13:12:41;99052.91;;;8.60;73.77
41712;BME280;27399;51.516;13.670;2023-01-15T13:15:13;99056.19;;;8.71;73.24
41712;BME280;27399;51.516;13.670;2023-01-15T13:18:10;99057.34;;;8.59;73.37
41712;BME280;27399;51.516;13.670;2023-01-15T13:20:46;99061.81;;;8.96;73.77
41712;BME280;27399;51.516;13.670;2023-01-15T13:29:08;99069.47;;;8.73;73.12
41712;BME280;27399;51.516;13.670;2023-01-15T13:31:56;99065.56;;;8.88;73.47
41712;BME280;27399;51.516;13.670;2023-01-15T13:34:37;99066.47;;;8.87;72.54
41712;BME280;27399;51.516;13.670;2023-01-15T13:37:38;99064.50;;;8.95;73.09
41712;BME280;27399;51.516;13.670;2023-01-15T13:40:22;99083.19;;;8.92;71.65
41712;BME280;27399;51.516;13.670;2023-01-15T13:42:50;99078.88;;;8.86;71.37
41712;BME280;27399;51.516;13.670;2023-01-15T13:45:42;99065.13;;;9.06;71.63
41712;BME280;27399;51.516;13.670;2023-01-15T13:50:41;99056.81;;;8.82;71.83
41712;BME280;27399;51.516;13.670;2023-01-15T13:53:30;99066.25;;;8.96;72.04
41712;BME280;27399;51.516;13.670;2023-01-15T13:56:07;99074.25;;;8.57;71.55
41712;BME280;27399;51.516;13.670;2023-01-15T13:58:38;99087.75;;;8.85;71.42
41712;BME280;27399;51.516;13.670;2023-01-15T14:06:38;99105.44;;;8.45;71.34
41712;BME280;27399;51.516;13.670;2023-01-15T14:09:05;99098.91;;;8.62;72.07
41712;BME280;27399;51.516;13.670;2023-01-15T14:20:36;99114.03;;;8.60;72.01
41712;BME280;27399;51.516;13.670;2023-01-15T14:23:24;99104.28;;;8.60;72.08
41712;BME280;27399;51.516;13.670;2023-01-15T14:26:13;99102.13;;;8.34;72.71
41712;BME280;27399;51.516;13.670;2023-01-15T14:32:03;99095.63;;;8.50;72.40
41712;BME280;27399;51.516;13.670;2023-01-15T14:34:35;99110.78;;;8.44;72.59
41712;BME280;27399;51.516;13.670;2023-01-15T14:37:04;99111.31;;;8.17;73.00
41712;BME280;27399;51.516;13.670;2023-01-15T14:39:37;99125.25;;;8.29;72.37